Grizzly Air Cargo 5091


PANC
Ted Stevens Anchorage International Airport
Anchorage, Alaska, US
PHNL
Daniel K Inouye International Airport
Honolulu, Hawaii, US

Activity Log

Date Flight Route Aircraft Duration
No Flights Yet

Route Details

Aircraft Information
Primary: Boeing 767-300BDSF
Backup: Not Available
Route Data
Distance: 2413nm
Sched. Duration: 6h 04m
Avg. Duration: 0h 00m (-605m)
Times Flown: 0
Recm'd Route: HOM 5500N/15100W 5000N/15100W 4500N/15100W 4000N/15200W 3500N/15300W 3000N/15400W ZOULU ZIGIE MAGGI3
Planned Altitude: 35,000ft
Origin Wx: PANC 060953Z 16006KT 10SM FEW040 FEW060 M03/M07 A2969 RMK AO2 SLP057 T10331072 $
Dest. Wx: PHNL 060953Z 18003KT 10SM FEW020 FEW050 FEW250 24/21 A2995 RMK AO2 SLP142 T02440206 402830206
Notes: OPERATED FOR GRIZZLY AIR CARGO

Financial History
Total Freight: 0lbs
Average Load: 0lbs/flt
Fuel Used: 0lbs
Avg. Fuel Used: 0lbs/flt
Fuel Expense: $0
Avg. Fuel Expense: $0
Avg. Fuel Cost: $0/lbs
Total Gross Income: $0
Pilot Pay: $0
Total Expenses: $0
Total Revenue: $0
Average Revenue: $0